This is the latest recevied weather packets stored in our database for station/object W7BL. If no packets are shown the sender has not sent any weather packets the latest 10 day(s).
| Time | Temp. | Humidity | Pressure | Rain* | Wind** | Luminosity | Snow |
|---|---|---|---|---|---|---|---|
| 1777561847 | 8.89° C | 66% | - | 0 mm | - | - | - |
| 1777561544 | 8.89° C | 66% | - | 0 mm | - | - | - |
| 1777561239 | 8.33° C | 68% | - | 0 mm | - | - | - |
| 1777560938 | 8.33° C | 69% | - | 0 mm | - | - | - |
| 1777560635 | 8.89° C | 67% | - | 0 mm | - | - | - |
| 1777560333 | 7.78° C | 70% | - | 0 mm | - | - | - |
| 1777560031 | 7.22° C | 73% | - | 0 mm | - | - | - |
| 1777559726 | 6.67° C | 74% | - | 0 mm | - | - | - |
| 1777559424 | 6.67° C | 74% | - | 0 mm | - | - | - |
| 1777559121 | 6.67° C | 75% | - | 0 mm | - | - | - |
| 1777558821 | 6.67° C | 76% | - | 0 mm | - | - | - |
| 1777558517 | 6.11° C | 79% | - | 0 mm | - | - | - |
| 1777558213 | 6.11° C | 80% | - | 0 mm | - | - | - |
| 1777557909 | 5.56° C | 80% | - | 0 mm | - | - | - |
| 1777557606 | 5° C | 82% | - | 0 mm | - | - | - |
| 1777557302 | 5° C | 83% | - | 0 mm | - | - | - |
| 1777556999 | 4.44° C | 84% | - | 0 mm | - | - | - |
| 1777556694 | 4.44° C | 84% | - | 0 mm | - | - | - |
| 1777556391 | 3.89° C | 83% | - | 0 mm | - | - | - |
| 1777556086 | 3.89° C | 84% | - | 0 mm | - | - | - |
| 1777555785 | 3.33° C | 85% | - | 0 mm | - | - | - |
| 1777555482 | 3.33° C | 86% | - | 0 mm | - | - | - |
| 1777555178 | 3.33° C | 86% | - | 0 mm | - | - | - |
| 1777554876 | 3.33° C | 86% | - | 0 mm | - | - | - |
| 1777554572 | 2.78° C | 87% | - | 0 mm | - | - | - |
* Rain latest hour (hover to see other rain measurements)
** Current wind speed in m/s (hover to see current wind gust speed)